createdAt,value
2022-09-06T00:00:13.185Z,100254.56
2022-09-06T00:01:00.224Z,100250.00
2022-09-06T00:01:47.166Z,100254.78
2022-09-06T00:02:34.419Z,100252.47
2022-09-06T00:03:21.412Z,100244.72
2022-09-06T00:04:11.819Z,100247.25
2022-09-06T00:05:01.632Z,100247.66
2022-09-06T00:05:48.874Z,100245.56
2022-09-06T00:06:35.783Z,100249.12
2022-09-06T00:07:22.683Z,100246.41
2022-09-06T00:08:09.633Z,100246.63
2022-09-06T00:08:56.582Z,100248.47
2022-09-06T00:09:43.895Z,100256.44
2022-09-06T00:10:31.634Z,100249.53
2022-09-06T00:11:19.028Z,100245.56
2022-09-06T00:12:06.208Z,100251.19
2022-09-06T00:12:53.034Z,100243.03
2022-09-06T00:13:40.293Z,100244.72
2022-09-06T00:14:27.164Z,100240.13
2022-09-06T00:15:14.221Z,100248.91
2022-09-06T00:16:08.685Z,100242.22
2022-09-06T00:16:55.656Z,100240.28
2022-09-06T00:17:45.013Z,100240.09
2022-09-06T00:18:31.964Z,100245.97
2022-09-06T00:19:18.955Z,100242.41
2022-09-06T00:20:09.342Z,100234.88
2022-09-06T00:20:56.183Z,100230.87
2022-09-06T00:21:43.115Z,100235.09
2022-09-06T00:22:29.914Z,100237.81
2022-09-06T00:23:16.913Z,100228.75
2022-09-06T00:24:04.147Z,100228.56
2022-09-06T00:24:50.984Z,100226.22
2022-09-06T00:25:37.866Z,100237.09
2022-09-06T00:26:24.924Z,100233.78
2022-09-06T00:27:11.743Z,100236.69
2022-09-06T00:28:00.305Z,100230.84
2022-09-06T00:28:47.466Z,100232.53
2022-09-06T00:29:34.894Z,100239.63
2022-09-06T00:30:21.753Z,100239.00
2022-09-06T00:31:13.454Z,100240.06
2022-09-06T00:32:12.894Z,100239.00
2022-09-06T00:32:59.704Z,100235.62
2022-09-06T00:33:46.723Z,100236.53
2022-09-06T00:34:33.677Z,100239.00
2022-09-06T00:35:22.085Z,100235.25
2022-09-06T00:36:09.727Z,100233.37
2022-09-06T00:36:56.562Z,100239.00
2022-09-06T00:37:43.372Z,100238.34
2022-09-06T00:38:30.274Z,100238.34
2022-09-06T00:39:17.144Z,100239.00
2022-09-06T00:40:04.291Z,100237.34
2022-09-06T00:40:51.224Z,100231.91
2022-09-06T00:41:38.044Z,100233.78
2022-09-06T00:42:24.743Z,100233.78
2022-09-06T00:43:11.535Z,100231.25
2022-09-06T00:43:58.713Z,100238.59
2022-09-06T00:44:45.624Z,100236.69
2022-09-06T00:45:32.904Z,100241.06
2022-09-06T00:46:24.358Z,100234.81
2022-09-06T00:47:11.344Z,100233.16
2022-09-06T00:48:00.182Z,100232.91
2022-09-06T00:48:50.003Z,100233.56
2022-09-06T00:49:44.783Z,100243.78
2022-09-06T00:50:31.713Z,100237.53
2022-09-06T00:51:18.955Z,100237.53
2022-09-06T00:52:09.623Z,100241.31
2022-09-06T00:52:56.466Z,100237.34
2022-09-06T00:53:43.494Z,100235.88
2022-09-06T00:54:30.564Z,100235.88
2022-09-06T00:55:17.764Z,100232.91
2022-09-06T00:56:05.113Z,100235.00
2022-09-06T00:56:52.063Z,100233.97
2022-09-06T00:57:39.553Z,100228.09
2022-09-06T00:58:27.438Z,100227.06
2022-09-06T00:59:15.544Z,100232.69
2022-09-06T01:00:04.208Z,100230.37
2022-09-06T01:00:51.395Z,100230.19
2022-09-06T01:01:38.633Z,100231.00
2022-09-06T01:02:26.111Z,100228.72
2022-09-06T01:03:13.104Z,100232.50
2022-09-06T01:04:00.165Z,100231.88
2022-09-06T01:04:48.524Z,100228.28
2022-09-06T01:06:02.943Z,100232.06
2022-09-06T01:06:55.893Z,100232.91
2022-09-06T01:07:57.195Z,100230.81
2022-09-06T01:08:46.665Z,100229.34
2022-09-06T01:09:48.763Z,100236.03
2022-09-06T01:11:09.044Z,100234.78
2022-09-06T01:12:13.924Z,100230.78
2022-09-06T01:13:00.838Z,100231.00
2022-09-06T01:14:11.633Z,100228.94
2022-09-06T01:15:06.134Z,100230.19
2022-09-06T01:16:30.873Z,100223.91
2022-09-06T01:17:36.468Z,100227.66
2022-09-06T01:18:36.197Z,100227.88
2022-09-06T01:19:50.206Z,100241.03
2022-09-06T01:20:45.993Z,100234.13
2022-09-06T01:22:00.183Z,100237.28
2022-09-06T01:23:14.794Z,100236.22
2022-09-06T01:24:40.174Z,100232.25
2022-09-06T01:25:50.924Z,100229.53
2022-09-06T01:27:02.144Z,100232.88
2022-09-06T01:27:48.945Z,100234.13
2022-09-06T01:28:43.529Z,100225.19
2022-09-06T01:29:40.097Z,100233.34
2022-09-06T01:30:27.012Z,100230.44
2022-09-06T01:31:22.989Z,100233.97
2022-09-06T01:32:09.803Z,100235.81
2022-09-06T01:33:04.013Z,100239.56
2022-09-06T01:34:06.120Z,100232.66
2022-09-06T01:34:57.103Z,100240.81
2022-09-06T01:35:55.273Z,100230.97
2022-09-06T01:37:08.955Z,100238.75
2022-09-06T01:37:57.455Z,100241.66
2022-09-06T01:38:44.295Z,100235.38
2022-09-06T01:39:34.373Z,100232.44
2022-09-06T01:40:21.183Z,100228.72
2022-09-06T01:41:09.191Z,100236.41
2022-09-06T01:41:56.964Z,100230.34
2022-09-06T01:42:45.704Z,100233.28
2022-09-06T01:43:35.823Z,100232.63
2022-09-06T01:44:23.343Z,100228.41
2022-09-06T01:45:14.314Z,100231.78
2022-09-06T01:46:13.358Z,100225.94
2022-09-06T01:47:25.303Z,100232.84
2022-09-06T01:48:45.303Z,100230.31
2022-09-06T01:49:47.024Z,100231.38
2022-09-06T01:51:11.243Z,100228.00
2022-09-06T01:52:08.284Z,100234.06
2022-09-06T01:53:20.106Z,100233.66
2022-09-06T01:54:33.713Z,100228.88
2022-09-06T01:55:32.064Z,100221.09
2022-09-06T01:56:50.735Z,100220.47
2022-09-06T01:57:58.632Z,100227.16
2022-09-06T01:59:11.524Z,100229.47
2022-09-06T02:00:10.066Z,100222.16
2022-09-06T02:01:14.843Z,100223.81
2022-09-06T02:02:17.033Z,100229.44
2022-09-06T02:03:25.844Z,100224.19
2022-09-06T02:04:23.864Z,100221.94
2022-09-06T02:05:32.971Z,100216.31
2022-09-06T02:06:27.031Z,100224.22
2022-09-06T02:07:19.494Z,100222.12
2022-09-06T02:08:11.303Z,100222.31
2022-09-06T02:09:12.133Z,100225.03
2022-09-06T02:10:25.074Z,100228.38
2022-09-06T02:11:14.663Z,100221.09
2022-09-06T02:12:02.464Z,100223.19
2022-09-06T02:12:53.867Z,100229.00
2022-09-06T02:13:45.903Z,100227.75
2022-09-06T02:14:51.545Z,100220.59
2022-09-06T02:15:42.993Z,100224.13
2022-09-06T02:16:31.119Z,100225.62
2022-09-06T02:17:20.623Z,100221.03
2022-09-06T02:18:14.124Z,100223.75
2022-09-06T02:19:09.725Z,100225.62
2022-09-06T02:20:24.222Z,100225.44
2022-09-06T02:21:13.723Z,100233.13
2022-09-06T02:22:03.143Z,100224.13
2022-09-06T02:22:50.983Z,100223.31
2022-09-06T02:23:40.655Z,100227.25
2022-09-06T02:24:31.426Z,100227.91
2022-09-06T02:25:27.873Z,100230.41
2022-09-06T02:26:18.832Z,100232.75
2022-09-06T02:27:05.713Z,100228.16
2022-09-06T02:27:52.932Z,100230.63
2022-09-06T02:28:40.106Z,100236.84
2022-09-06T02:29:27.653Z,100228.69
2022-09-06T02:30:14.524Z,100226.56
2022-09-06T02:31:04.071Z,100224.25
2022-09-06T02:32:06.828Z,100236.81
2022-09-06T02:32:59.324Z,100237.63
2022-09-06T02:33:46.703Z,100228.84
2022-09-06T02:34:33.534Z,100239.72
2022-09-06T02:35:20.464Z,100228.84
2022-09-06T02:36:09.483Z,100233.00
2022-09-06T02:36:56.524Z,100233.81
2022-09-06T02:37:44.175Z,100232.59
2022-09-06T02:38:31.537Z,100232.81
2022-09-06T02:39:18.343Z,100231.31
2022-09-06T02:40:06.289Z,100238.00
2022-09-06T02:40:54.514Z,100233.00
2022-09-06T02:41:42.654Z,100225.09
2022-09-06T02:42:29.524Z,100236.16
2022-09-06T02:43:16.375Z,100233.44
2022-09-06T02:44:03.564Z,100233.03
2022-09-06T02:44:50.523Z,100239.31
2022-09-06T02:45:37.828Z,100235.94
2022-09-06T02:46:24.973Z,100228.84
2022-09-06T02:47:11.923Z,100230.31
2022-09-06T02:47:58.783Z,100233.44
2022-09-06T02:48:46.868Z,100231.38
2022-09-06T02:49:33.708Z,100230.50
2022-09-06T02:50:20.554Z,100243.44
2022-09-06T02:51:08.905Z,100244.31
2022-09-06T02:51:55.951Z,100236.72
2022-09-06T02:52:43.022Z,100234.44
2022-09-06T02:53:29.904Z,100236.72
2022-09-06T02:54:16.824Z,100228.59
2022-09-06T02:55:04.739Z,100229.88
2022-09-06T02:55:51.665Z,100231.38
2022-09-06T02:56:38.582Z,100226.97
2022-09-06T02:57:25.305Z,100236.16
2022-09-06T02:58:12.294Z,100227.13
2022-09-06T02:58:59.215Z,100230.66
2022-09-06T02:59:46.483Z,100231.06
2022-09-06T03:00:33.924Z,100228.75
2022-09-06T03:01:20.881Z,100229.38
2022-09-06T03:02:07.987Z,100227.53
2022-09-06T03:02:56.023Z,100224.34
2022-09-06T03:03:42.983Z,100225.97
2022-09-06T03:04:29.861Z,100226.03
2022-09-06T03:05:16.944Z,100220.63
2022-09-06T03:06:03.864Z,100224.53
2022-09-06T03:06:50.664Z,100220.16
2022-09-06T03:07:37.553Z,100223.25
2022-09-06T03:08:33.614Z,100220.16
2022-09-06T03:09:20.773Z,100216.16
2022-09-06T03:10:07.946Z,100222.25
2022-09-06T03:10:56.496Z,100216.53
2022-09-06T03:11:43.343Z,100219.25
2022-09-06T03:12:30.176Z,100214.69
2022-09-06T03:13:17.311Z,100218.22
2022-09-06T03:14:04.217Z,100219.47
2022-09-06T03:14:54.818Z,100219.84
2022-09-06T03:15:42.024Z,100215.94
2022-09-06T03:16:28.925Z,100219.25
2022-09-06T03:17:15.703Z,100220.31
2022-09-06T03:18:02.603Z,100218.00
2022-09-06T03:18:49.484Z,100218.84
2022-09-06T03:19:36.224Z,100214.88
2022-09-06T03:20:23.033Z,100220.31
2022-09-06T03:21:10.142Z,100210.50
2022-09-06T03:21:56.903Z,100219.06
2022-09-06T03:22:43.711Z,100210.09
2022-09-06T03:23:30.524Z,100208.81
2022-09-06T03:24:17.532Z,100213.22
2022-09-06T03:25:04.604Z,100207.16
2022-09-06T03:25:51.683Z,100202.09
2022-09-06T03:26:38.465Z,100208.56
2022-09-06T03:27:25.304Z,100206.69
2022-09-06T03:28:13.055Z,100207.94
2022-09-06T03:28:59.893Z,100211.47
2022-09-06T03:29:46.764Z,100207.94
2022-09-06T03:30:33.690Z,100202.28
2022-09-06T03:31:20.606Z,100204.16
2022-09-06T03:32:07.394Z,100201.22
2022-09-06T03:32:54.272Z,100194.94
2022-09-06T03:33:41.207Z,100201.22
2022-09-06T03:34:28.004Z,100197.44
2022-09-06T03:35:15.418Z,100199.34
2022-09-06T03:36:03.373Z,100205.22
2022-09-06T03:36:50.274Z,100205.16
2022-09-06T03:37:37.272Z,100200.13
2022-09-06T03:38:25.635Z,100203.09
2022-09-06T03:39:12.564Z,100196.44
2022-09-06T03:40:00.066Z,100204.56
2022-09-06T03:40:50.665Z,100192.66
2022-09-06T03:41:38.383Z,100194.94
2022-09-06T03:42:26.816Z,100198.50
2022-09-06T03:43:15.038Z,100191.78
2022-09-06T03:44:02.224Z,100190.94
2022-09-06T03:44:49.074Z,100193.84
2022-09-06T03:45:36.023Z,100193.66
2022-09-06T03:46:23.018Z,100189.91
2022-09-06T03:47:09.933Z,100193.25
2022-09-06T03:47:56.752Z,100194.72
2022-09-06T03:48:43.584Z,100197.44
2022-09-06T03:49:30.495Z,100197.06
2022-09-06T03:50:17.514Z,100194.13
2022-09-06T03:51:04.356Z,100194.94
2022-09-06T03:51:51.291Z,100197.84
2022-09-06T03:52:38.083Z,100195.16
2022-09-06T03:53:26.540Z,100200.16
2022-09-06T03:54:14.066Z,100190.72
2022-09-06T03:55:00.883Z,100193.84
2022-09-06T03:55:52.884Z,100192.38
2022-09-06T03:56:39.723Z,100192.56
2022-09-06T03:57:26.713Z,100193.22
2022-09-06T03:58:14.404Z,100186.72
2022-09-06T03:59:01.283Z,100192.81
2022-09-06T03:59:48.324Z,100197.03
2022-09-06T04:00:35.122Z,100195.97
2022-09-06T04:01:22.004Z,100194.53
2022-09-06T04:02:09.202Z,100193.25
2022-09-06T04:03:00.986Z,100205.16
2022-09-06T04:03:48.496Z,100196.16
2022-09-06T04:04:35.394Z,100193.66
2022-09-06T04:05:22.224Z,100201.34
2022-09-06T04:06:09.564Z,100196.94
2022-09-06T04:06:56.473Z,100201.53
2022-09-06T04:07:43.834Z,100198.81
2022-09-06T04:08:32.716Z,100198.62
2022-09-06T04:09:19.514Z,100200.53
2022-09-06T04:10:07.194Z,100196.56
2022-09-06T04:10:55.037Z,100200.31
2022-09-06T04:11:45.026Z,100193.66
2022-09-06T04:12:32.015Z,100194.69
2022-09-06T04:13:18.859Z,100193.84
2022-09-06T04:14:05.765Z,100195.47
2022-09-06T04:14:52.692Z,100194.03
2022-09-06T04:15:39.473Z,100202.19
2022-09-06T04:16:26.308Z,100188.81
2022-09-06T04:17:14.863Z,100198.03
2022-09-06T04:18:04.926Z,100201.41
2022-09-06T04:18:54.284Z,100197.44
2022-09-06T04:19:41.194Z,100205.41
2022-09-06T04:20:28.003Z,100203.72
2022-09-06T04:21:14.804Z,100194.72
2022-09-06T04:22:01.713Z,100201.00
2022-09-06T04:22:48.574Z,100198.69
2022-09-06T04:23:39.791Z,100198.09
2022-09-06T04:24:26.883Z,100200.63
2022-09-06T04:25:14.173Z,100198.28
2022-09-06T04:26:01.055Z,100204.56
2022-09-06T04:26:47.843Z,100200.63
2022-09-06T04:27:35.151Z,100202.72
2022-09-06T04:28:22.800Z,100204.81
2022-09-06T04:29:09.645Z,100198.28
2022-09-06T04:29:56.864Z,100201.62
2022-09-06T04:30:43.938Z,100201.91
2022-09-06T04:31:30.827Z,100198.12
2022-09-06T04:32:17.713Z,100200.66
2022-09-06T04:33:04.613Z,100202.53
2022-09-06T04:33:51.415Z,100204.66
2022-09-06T04:34:38.206Z,100205.94
2022-09-06T04:35:25.087Z,100201.34
2022-09-06T04:36:12.799Z,100204.31
2022-09-06T04:36:59.664Z,100197.44
2022-09-06T04:37:46.546Z,100202.22
2022-09-06T04:38:42.188Z,100197.44
2022-09-06T04:39:29.036Z,100204.75
2022-09-06T04:40:16.083Z,100205.44
2022-09-06T04:41:03.423Z,100203.56
2022-09-06T04:41:50.373Z,100208.59
2022-09-06T04:42:37.103Z,100201.88
2022-09-06T04:43:24.453Z,100201.66
2022-09-06T04:44:11.226Z,100203.31
2022-09-06T04:44:58.214Z,100207.94
2022-09-06T04:45:45.421Z,100209.25
2022-09-06T04:46:32.323Z,100208.19
2022-09-06T04:47:19.623Z,100200.91
2022-09-06T04:48:06.482Z,100202.56
2022-09-06T04:48:55.185Z,100202.56
2022-09-06T04:49:42.706Z,100203.00
2022-09-06T04:50:29.744Z,100203.91
2022-09-06T04:51:17.314Z,100205.19
2022-09-06T04:52:04.624Z,100206.03
2022-09-06T04:52:51.503Z,100203.97
2022-09-06T04:53:38.306Z,100208.19
2022-09-06T04:54:25.225Z,100206.50
2022-09-06T04:55:12.256Z,100206.31
2022-09-06T04:55:59.214Z,100208.59
2022-09-06T04:56:46.124Z,100206.97
2022-09-06T04:57:32.916Z,100202.81
2022-09-06T04:58:19.785Z,100204.09
2022-09-06T04:59:06.674Z,100201.56
2022-09-06T04:59:53.614Z,100204.31
2022-09-06T05:00:41.961Z,100208.31
2022-09-06T05:01:28.867Z,100194.53
2022-09-06T05:02:15.888Z,100199.53
2022-09-06T05:03:02.873Z,100201.22
2022-09-06T05:03:52.173Z,100202.87
2022-09-06T05:04:40.876Z,100201.25
2022-09-06T05:05:27.743Z,100208.59
2022-09-06T05:06:25.742Z,100201.47
2022-09-06T05:07:12.634Z,100208.81
2022-09-06T05:07:59.503Z,100197.75
2022-09-06T05:08:46.703Z,100200.47
2022-09-06T05:09:34.136Z,100204.25
2022-09-06T05:10:21.634Z,100203.25
2022-09-06T05:11:09.485Z,100195.47
2022-09-06T05:11:59.814Z,100199.47
2022-09-06T05:12:53.895Z,100198.81
2022-09-06T05:13:41.294Z,100201.19
2022-09-06T05:14:29.004Z,100197.00
2022-09-06T05:15:17.333Z,100206.81
2022-09-06T05:16:05.974Z,100206.63
2022-09-06T05:16:53.351Z,100204.72
2022-09-06T05:17:40.204Z,100207.06
2022-09-06T05:18:27.142Z,100204.97
2022-09-06T05:19:14.184Z,100209.97
2022-09-06T05:20:01.053Z,100209.97
2022-09-06T05:20:54.505Z,100204.75
2022-09-06T05:21:41.283Z,100201.16
2022-09-06T05:22:28.164Z,100209.94
2022-09-06T05:23:15.014Z,100202.22
2022-09-06T05:24:48.854Z,100206.19
2022-09-06T05:25:35.703Z,100207.63
2022-09-06T05:26:22.814Z,100207.44
2022-09-06T05:27:09.712Z,100208.88
2022-09-06T05:27:56.546Z,100212.66
2022-09-06T05:28:43.522Z,100210.56
2022-09-06T05:29:30.992Z,100222.28
2022-09-06T05:30:18.506Z,100211.97
2022-09-06T05:31:10.304Z,100216.37
2022-09-06T05:31:57.666Z,100209.87
2022-09-06T05:32:44.693Z,100210.44
2022-09-06T05:33:31.504Z,100213.75
2022-09-06T05:34:18.363Z,100205.56
2022-09-06T05:35:05.404Z,100209.13
2022-09-06T05:35:52.184Z,100203.88
2022-09-06T05:36:39.256Z,100209.09
2022-09-06T05:37:26.123Z,100209.09
2022-09-06T05:38:12.974Z,100204.66
2022-09-06T05:39:00.000Z,100208.44
2022-09-06T05:39:47.008Z,100206.31
2022-09-06T05:40:33.914Z,100207.94
2022-09-06T05:41:21.914Z,100213.75
2022-09-06T05:42:08.937Z,100213.00
2022-09-06T05:42:55.746Z,100210.34
2022-09-06T05:43:42.594Z,100204.97
2022-09-06T05:44:29.404Z,100201.06
2022-09-06T05:45:17.220Z,100199.97
2022-09-06T05:46:04.301Z,100202.09
2022-09-06T05:46:51.287Z,100206.53
2022-09-06T05:47:38.654Z,100206.53
2022-09-06T05:48:25.563Z,100202.53
2022-09-06T05:49:13.154Z,100207.94
2022-09-06T05:50:00.159Z,100211.97
2022-09-06T05:50:46.951Z,100208.78
2022-09-06T05:51:33.834Z,100208.78
2022-09-06T05:52:20.716Z,100205.81
2022-09-06T05:53:07.593Z,100215.47
2022-09-06T05:53:54.497Z,100208.69
2022-09-06T05:54:41.324Z,100206.13
2022-09-06T05:55:28.223Z,100212.19
2022-09-06T05:56:15.736Z,100208.81
2022-09-06T05:57:02.744Z,100212.78
2022-09-06T05:57:49.552Z,100210.31
2022-09-06T05:58:36.733Z,100209.50
2022-09-06T05:59:23.584Z,100204.41
2022-09-06T06:00:12.365Z,100206.06
2022-09-06T06:01:13.943Z,100205.06
2022-09-06T06:02:03.323Z,100204.31
2022-09-06T06:02:53.550Z,100202.34
2022-09-06T06:03:40.544Z,100199.16
2022-09-06T06:04:27.362Z,100198.41
2022-09-06T06:05:14.540Z,100200.19
2022-09-06T06:06:01.473Z,100199.94
2022-09-06T06:06:49.496Z,100206.16
2022-09-06T06:07:36.325Z,100209.59
2022-09-06T06:08:23.367Z,100205.75
2022-09-06T06:09:10.293Z,100206.25
2022-09-06T06:09:57.215Z,100206.44
2022-09-06T06:10:44.126Z,100209.91
2022-09-06T06:11:31.744Z,100202.50
2022-09-06T06:12:18.527Z,100207.34
2022-09-06T06:13:05.495Z,100208.56
2022-09-06T06:13:52.974Z,100213.09
2022-09-06T06:14:39.914Z,100207.69
2022-09-06T06:15:26.734Z,100204.78
2022-09-06T06:16:16.826Z,100200.06
2022-09-06T06:17:04.084Z,100195.69
2022-09-06T06:17:50.924Z,100199.44
2022-09-06T06:18:38.223Z,100197.97
2022-09-06T06:19:26.834Z,100202.16
2022-09-06T06:20:13.883Z,100193.88
2022-09-06T06:21:15.953Z,100199.72
2022-09-06T06:22:02.804Z,100196.09
2022-09-06T06:22:49.624Z,100201.03
2022-09-06T06:23:36.456Z,100197.66
2022-09-06T06:24:23.203Z,100201.72
2022-09-06T06:25:12.481Z,100198.66
2022-09-06T06:25:59.544Z,100197.19
2022-09-06T06:26:46.357Z,100204.06
2022-09-06T06:27:35.044Z,100197.44
2022-09-06T06:28:21.983Z,100194.97
2022-09-06T06:29:09.823Z,100192.81
2022-09-06T06:29:57.094Z,100195.31
2022-09-06T06:30:44.034Z,100198.47
2022-09-06T06:31:32.437Z,100202.94
2022-09-06T06:32:19.274Z,100196.09
2022-09-06T06:33:06.144Z,100192.78
2022-09-06T06:33:53.275Z,100194.72
2022-09-06T06:34:40.078Z,100204.66
2022-09-06T06:35:26.873Z,100199.44
2022-09-06T06:36:13.655Z,100192.47
2022-09-06T06:37:00.666Z,100191.12
2022-09-06T06:37:47.524Z,100197.50
2022-09-06T06:38:36.423Z,100196.63
2022-09-06T06:39:23.313Z,100191.69
2022-09-06T06:40:10.800Z,100193.13
2022-09-06T06:41:01.040Z,100196.16
2022-09-06T06:41:51.354Z,100195.34
2022-09-06T06:42:38.195Z,100189.81
2022-09-06T06:43:25.174Z,100187.62
2022-09-06T06:44:12.020Z,100193.44
2022-09-06T06:44:59.034Z,100201.56
2022-09-06T06:45:50.187Z,100194.09
2022-09-06T06:46:38.254Z,100197.72
2022-09-06T06:47:25.676Z,100196.59
2022-09-06T06:48:12.678Z,100199.13
2022-09-06T06:48:59.812Z,100197.78
2022-09-06T06:49:46.841Z,100202.47
2022-09-06T06:50:33.654Z,100198.66
2022-09-06T06:51:21.713Z,100198.66
2022-09-06T06:52:08.553Z,100197.38
2022-09-06T06:52:55.355Z,100197.69
2022-09-06T06:53:42.406Z,100199.66
2022-09-06T06:54:29.993Z,100198.03
2022-09-06T06:55:16.834Z,100200.88
2022-09-06T06:56:30.752Z,100196.78
2022-09-06T06:57:17.844Z,100197.09
2022-09-06T06:58:04.734Z,100198.44
2022-09-06T06:58:53.714Z,100200.69
2022-09-06T06:59:40.613Z,100200.75
2022-09-06T07:00:28.345Z,100199.91
2022-09-06T07:01:16.515Z,100197.09
2022-09-06T07:02:03.565Z,100201.00
2022-09-06T07:02:50.504Z,100203.19
2022-09-06T07:03:37.541Z,100206.56
2022-09-06T07:04:24.456Z,100205.94
2022-09-06T07:06:19.135Z,100203.06
2022-09-06T07:08:13.933Z,100207.25
2022-09-06T07:09:01.064Z,100198.34
2022-09-06T07:10:54.905Z,100196.59
2022-09-06T07:11:42.244Z,100205.91
2022-09-06T07:12:29.186Z,100203.37
2022-09-06T07:13:16.013Z,100202.66
2022-09-06T07:14:02.906Z,100203.50
2022-09-06T07:14:49.773Z,100207.44
2022-09-06T07:15:36.618Z,100201.09
2022-09-06T07:16:24.613Z,100200.81
2022-09-06T07:17:11.561Z,100201.62
2022-09-06T07:17:58.534Z,100200.84
2022-09-06T07:18:46.191Z,100207.19
2022-09-06T07:21:46.885Z,100206.31
2022-09-06T07:22:33.816Z,100206.94
2022-09-06T07:24:27.435Z,100203.28
2022-09-06T07:25:19.072Z,100212.94
2022-09-06T07:26:09.076Z,100209.97
2022-09-06T07:28:07.284Z,100210.59
2022-09-06T07:28:59.227Z,100207.31
2022-09-06T07:29:46.133Z,100196.37
2022-09-06T07:30:35.486Z,100202.53
2022-09-06T07:32:31.350Z,100203.13
2022-09-06T07:33:19.071Z,100207.69
2022-09-06T07:34:06.048Z,100198.59
2022-09-06T07:34:52.947Z,100202.19
2022-09-06T07:35:39.792Z,100213.34
2022-09-06T07:36:26.873Z,100206.72
2022-09-06T07:37:13.682Z,100216.16
2022-09-06T07:38:01.345Z,100212.84
2022-09-06T07:38:50.189Z,100214.53
2022-09-06T07:39:37.329Z,100210.66
2022-09-06T07:40:25.668Z,100209.81
2022-09-06T07:41:12.758Z,100216.78
2022-09-06T07:41:59.704Z,100215.44
2022-09-06T07:42:57.117Z,100217.69
2022-09-06T07:43:44.905Z,100220.41
2022-09-06T07:44:31.746Z,100217.13
2022-09-06T07:45:19.274Z,100221.62
2022-09-06T07:46:10.991Z,100216.09
2022-09-06T07:48:04.918Z,100215.84
2022-09-06T07:48:51.976Z,100213.06
2022-09-06T07:49:39.405Z,100211.97
2022-09-06T07:51:30.586Z,100220.31
2022-09-06T07:53:30.443Z,100220.66
2022-09-06T07:54:33.322Z,100219.28
2022-09-06T07:55:20.280Z,100222.56
2022-09-06T07:56:09.373Z,100220.34
2022-09-06T07:56:56.205Z,100220.06
2022-09-06T07:57:43.041Z,100221.47
2022-09-06T07:58:30.622Z,100226.16
2022-09-06T07:59:17.500Z,100221.97
2022-09-06T08:00:05.408Z,100220.59
2022-09-06T08:00:52.254Z,100220.31
2022-09-06T08:01:39.611Z,100210.63
2022-09-06T08:02:26.575Z,100210.06
2022-09-06T08:03:13.478Z,100203.97
2022-09-06T08:04:05.874Z,100208.41
2022-09-06T08:04:52.774Z,100206.22
2022-09-06T08:09:02.924Z,100204.50
2022-09-06T08:09:49.742Z,100196.47
2022-09-06T08:10:36.561Z,100202.28
2022-09-06T08:11:25.795Z,100205.34
2022-09-06T08:12:12.753Z,100198.97
2022-09-06T08:12:59.556Z,100193.16
2022-09-06T08:13:50.536Z,100193.75
2022-09-06T08:14:37.418Z,100199.59
2022-09-06T08:15:24.285Z,100204.84
2022-09-06T08:16:12.769Z,100200.97
2022-09-06T08:17:00.091Z,100199.87
2022-09-06T08:17:51.288Z,100205.66
2022-09-06T08:18:38.383Z,100212.03
2022-09-06T08:19:25.392Z,100203.78
2022-09-06T08:20:13.031Z,100204.31
2022-09-06T08:21:12.748Z,100207.06
2022-09-06T08:21:59.829Z,100203.75
2022-09-06T08:22:46.647Z,100207.34
2022-09-06T08:23:33.507Z,100203.75
2022-09-06T08:24:20.787Z,100203.72
2022-09-06T08:25:08.116Z,100205.09
2022-09-06T08:25:58.849Z,100201.78
2022-09-06T08:26:45.953Z,100202.91
2022-09-06T08:27:32.824Z,100207.03
2022-09-06T08:28:19.632Z,100207.34
2022-09-06T08:29:07.851Z,100205.69
2022-09-06T08:29:54.707Z,100209.53
2022-09-06T08:30:41.597Z,100205.69
2022-09-06T08:31:30.281Z,100206.78
2022-09-06T08:32:17.284Z,100205.97
2022-09-06T08:33:04.112Z,100206.50
2022-09-06T08:33:51.953Z,100195.44
2022-09-06T08:34:39.072Z,100200.44
2022-09-06T08:35:25.844Z,100202.66
2022-09-06T08:36:13.938Z,100196.50
2022-09-06T08:37:00.769Z,100197.03
2022-09-06T08:37:47.533Z,100196.25
2022-09-06T08:38:34.934Z,100197.88
2022-09-06T08:39:21.994Z,100197.03
2022-09-06T08:40:09.382Z,100199.50
2022-09-06T08:41:08.094Z,100188.06
2022-09-06T08:42:03.946Z,100196.94
2022-09-06T08:42:51.122Z,100194.66
2022-09-06T08:43:38.895Z,100197.97
2022-09-06T08:44:57.034Z,100190.44
2022-09-06T08:45:45.210Z,100185.19
2022-09-06T08:46:59.823Z,100189.56
2022-09-06T08:47:46.762Z,100187.66
2022-09-06T08:48:37.278Z,100180.16
2022-09-06T08:49:27.545Z,100179.03
2022-09-06T08:50:14.470Z,100186.25
2022-09-06T08:51:27.721Z,100189.31
2022-09-06T08:53:13.652Z,100191.47
2022-09-06T08:54:09.602Z,100188.63
2022-09-06T08:55:17.928Z,100198.88
2022-09-06T08:56:13.576Z,100186.13
2022-09-06T08:57:22.214Z,100184.97
2022-09-06T08:58:55.101Z,100189.97
2022-09-06T08:59:43.313Z,100188.03
2022-09-06T09:00:31.217Z,100182.56
2022-09-06T09:01:23.340Z,100179.63
2022-09-06T09:02:19.353Z,100171.34
2022-09-06T09:03:16.788Z,100173.25
2022-09-06T09:04:05.595Z,100172.06
2022-09-06T09:04:56.233Z,100169.44
2022-09-06T09:05:44.161Z,100170.31
2022-09-06T09:06:32.966Z,100175.28
2022-09-06T09:07:48.190Z,100174.66
2022-09-06T09:09:02.335Z,100173.22
2022-09-06T09:09:49.871Z,100166.94
2022-09-06T09:10:42.958Z,100172.06
2022-09-06T09:11:30.145Z,100172.53
2022-09-06T09:12:18.145Z,100168.84
2022-09-06T09:13:07.520Z,100171.03
2022-09-06T09:14:09.271Z,100169.03
2022-09-06T09:15:01.554Z,100175.66
2022-09-06T09:15:48.495Z,100166.13
2022-09-06T09:16:35.573Z,100168.09
2022-09-06T09:17:28.311Z,100164.41
2022-09-06T09:18:18.111Z,100158.03
2022-09-06T09:19:05.784Z,100154.09
2022-09-06T09:19:52.953Z,100164.56
2022-09-06T09:20:40.072Z,100157.03
2022-09-06T09:21:31.180Z,100151.56
2022-09-06T09:22:19.717Z,100153.84
2022-09-06T09:23:06.779Z,100152.94
2022-09-06T09:23:55.897Z,100152.94
2022-09-06T09:24:42.973Z,100155.44
2022-09-06T09:25:32.468Z,100146.00
2022-09-06T09:26:20.603Z,100149.19
2022-09-06T09:27:11.369Z,100149.91
2022-09-06T09:27:58.762Z,100151.12
2022-09-06T09:29:08.759Z,100152.50
2022-09-06T09:31:07.292Z,100147.38
2022-09-06T09:31:55.513Z,100151.31
2022-09-06T09:32:45.397Z,100149.06
2022-09-06T09:33:39.069Z,100145.84
2022-09-06T09:34:33.450Z,100140.06
2022-09-06T09:35:34.248Z,100140.72
2022-09-06T09:36:21.610Z,100137.25
2022-09-06T09:38:40.227Z,100141.69
2022-09-06T09:39:35.170Z,100139.69
2022-09-06T09:40:25.212Z,100150.25
2022-09-06T09:41:28.058Z,100136.25
2022-09-06T09:42:25.119Z,100134.25
2022-09-06T09:43:16.619Z,100139.88
2022-09-06T09:44:06.205Z,100133.50
2022-09-06T09:44:53.203Z,100143.81
2022-09-06T09:45:40.078Z,100137.47
2022-09-06T09:46:26.954Z,100133.97
2022-09-06T09:47:28.763Z,100130.34
2022-09-06T09:48:20.787Z,100132.06